createdAt,value
2019-03-13T00:02:39.681Z,2.30
2019-03-13T00:05:11.536Z,2.47
2019-03-13T00:07:43.236Z,2.23
2019-03-13T00:10:14.944Z,2.10
2019-03-13T00:12:46.510Z,2.17
2019-03-13T00:15:18.096Z,2.13
2019-03-13T00:17:49.959Z,2.10
2019-03-13T00:20:21.305Z,2.20
2019-03-13T00:22:52.754Z,1.90
2019-03-13T00:25:24.827Z,2.50
2019-03-13T00:27:57.069Z,2.33
2019-03-13T00:30:28.809Z,2.10
2019-03-13T00:33:00.094Z,2.10
2019-03-13T00:35:31.362Z,2.63
2019-03-13T00:38:03.016Z,2.30
2019-03-13T00:40:34.476Z,2.07
2019-03-13T00:43:06.045Z,2.03
2019-03-13T00:45:37.188Z,2.20
2019-03-13T00:48:08.301Z,2.07
2019-03-13T00:50:39.431Z,2.30
2019-03-13T00:53:10.628Z,2.23
2019-03-13T00:55:41.929Z,2.10
2019-03-13T00:58:13.582Z,2.23
2019-03-13T01:01:16.048Z,1.87
2019-03-13T01:03:51.678Z,1.80
2019-03-13T01:06:26.020Z,1.73
2019-03-13T01:08:58.664Z,1.97
2019-03-13T01:11:30.185Z,1.80
2019-03-13T01:14:01.514Z,1.93
2019-03-13T01:16:32.790Z,1.90
2019-03-13T01:19:04.029Z,1.87
2019-03-13T01:21:35.320Z,2.17
2019-03-13T01:24:06.612Z,1.93
2019-03-13T01:26:38.091Z,2.00
2019-03-13T01:29:09.554Z,2.00
2019-03-13T01:31:54.015Z,1.87
2019-03-13T01:34:38.154Z,1.90
2019-03-13T01:37:09.732Z,2.17
2019-03-13T01:39:40.865Z,1.77
2019-03-13T01:42:12.322Z,2.03
2019-03-13T01:44:44.711Z,2.13
2019-03-13T01:47:15.958Z,2.00
2019-03-13T01:49:47.417Z,1.80
2019-03-13T01:52:18.848Z,2.10
2019-03-13T01:54:50.278Z,2.00
2019-03-13T01:57:21.706Z,1.93
2019-03-13T01:59:52.896Z,1.90
2019-03-13T02:02:25.064Z,1.90
2019-03-13T02:04:56.490Z,2.20
2019-03-13T02:07:27.751Z,2.30
2019-03-13T02:09:59.010Z,2.00
2019-03-13T02:12:30.556Z,2.07
2019-03-13T02:15:01.678Z,2.07
2019-03-13T02:17:33.361Z,2.10
2019-03-13T02:20:05.697Z,2.40
2019-03-13T02:22:37.903Z,2.23
2019-03-13T02:25:09.602Z,1.90
2019-03-13T02:27:40.754Z,1.87
2019-03-13T02:30:13.338Z,1.93
2019-03-13T02:32:44.466Z,1.90
2019-03-13T02:35:15.948Z,1.67
2019-03-13T02:37:47.161Z,1.50
2019-03-13T02:40:18.442Z,1.10
2019-03-13T02:42:50.296Z,0.90
2019-03-13T02:45:22.027Z,0.70
2019-03-13T02:47:53.173Z,0.33
2019-03-13T02:50:24.465Z,0.20
2019-03-13T02:52:55.678Z,0.10
2019-03-13T02:55:27.265Z,0.20
2019-03-13T02:57:58.717Z,0.30
2019-03-13T03:00:42.476Z,0.30
2019-03-13T03:03:27.405Z,0.33
2019-03-13T03:06:00.052Z,0.20
2019-03-13T03:08:31.186Z,0.30
2019-03-13T03:11:02.429Z,0.10
2019-03-13T03:13:33.925Z,0.27
2019-03-13T03:16:05.392Z,0.30
2019-03-13T03:18:36.950Z,0.40
2019-03-13T03:21:08.172Z,0.50
2019-03-13T03:23:39.408Z,0.40
2019-03-13T03:26:10.640Z,0.33
2019-03-13T03:28:41.779Z,0.40
2019-03-13T03:31:12.910Z,0.40
2019-03-13T03:33:58.247Z,0.40
2019-03-13T03:36:30.185Z,0.30
2019-03-13T03:39:01.612Z,0.20
2019-03-13T03:41:34.643Z,0.40
2019-03-13T03:44:06.054Z,0.40
2019-03-13T03:46:37.878Z,0.43
2019-03-13T03:49:08.988Z,0.40
2019-03-13T03:51:40.360Z,0.53
2019-03-13T03:54:11.849Z,0.50
2019-03-13T03:56:43.005Z,0.57
2019-03-13T03:59:14.345Z,0.50
2019-03-13T04:01:45.790Z,0.50
2019-03-13T04:04:16.994Z,0.40
2019-03-13T04:06:48.688Z,0.50
2019-03-13T04:09:20.042Z,0.60
2019-03-13T04:11:51.237Z,0.90
2019-03-13T04:14:22.437Z,0.80
2019-03-13T04:16:54.007Z,0.70
2019-03-13T04:19:25.365Z,0.70
2019-03-13T04:21:57.412Z,0.80
2019-03-13T04:24:28.604Z,0.80
2019-03-13T04:27:00.766Z,0.70
2019-03-13T04:29:31.969Z,0.70
2019-03-13T04:32:03.163Z,0.80
2019-03-13T04:34:34.292Z,0.63
2019-03-13T04:37:05.448Z,0.63
2019-03-13T04:39:36.598Z,0.70
2019-03-13T04:42:07.790Z,0.80
2019-03-13T04:44:39.287Z,0.70
2019-03-13T04:47:11.379Z,0.67
2019-03-13T04:49:43.582Z,0.60
2019-03-13T04:52:15.129Z,0.60
2019-03-13T04:54:46.302Z,2.00
2019-03-13T04:57:17.507Z,0.60
2019-03-13T04:59:48.664Z,0.60
2019-03-13T05:02:19.882Z,0.40
2019-03-13T05:04:51.036Z,0.60
2019-03-13T05:07:22.204Z,0.50
2019-03-13T05:09:53.649Z,0.70
2019-03-13T05:12:25.161Z,0.43
2019-03-13T05:14:56.316Z,0.40
2019-03-13T05:17:27.438Z,0.50
2019-03-13T05:19:58.981Z,0.60
2019-03-13T05:22:30.719Z,0.50
2019-03-13T05:25:02.085Z,0.70
2019-03-13T05:27:33.267Z,0.50
2019-03-13T05:30:05.467Z,0.50
2019-03-13T05:32:36.673Z,0.50
2019-03-13T05:35:08.023Z,0.50
2019-03-13T05:37:39.563Z,0.60
2019-03-13T05:40:11.712Z,0.70
2019-03-13T05:42:43.539Z,0.70
2019-03-13T05:45:15.506Z,2.83
2019-03-13T05:47:46.649Z,7.10
2019-03-13T05:50:17.939Z,6.23
2019-03-13T05:52:49.147Z,0.70
2019-03-13T05:55:20.369Z,0.90
2019-03-13T05:57:51.591Z,1.00
2019-03-13T06:00:24.351Z,1.90
2019-03-13T06:02:55.552Z,1.43
2019-03-13T06:05:26.769Z,0.70
2019-03-13T06:07:57.904Z,0.77
2019-03-13T06:10:29.402Z,1.07
2019-03-13T06:13:00.983Z,1.00
2019-03-13T06:15:32.133Z,1.20
2019-03-13T06:18:03.484Z,1.20
2019-03-13T06:20:34.611Z,3.80
2019-03-13T06:23:05.967Z,1.00
2019-03-13T06:25:37.400Z,0.93
2019-03-13T06:28:08.541Z,0.83
2019-03-13T06:30:40.058Z,0.80
2019-03-13T06:33:11.301Z,1.10
2019-03-13T06:35:42.501Z,1.10
2019-03-13T06:38:13.724Z,1.20
2019-03-13T06:40:44.994Z,1.50
2019-03-13T06:43:16.162Z,1.17
2019-03-13T06:45:47.358Z,1.23
2019-03-13T06:48:18.571Z,1.10
2019-03-13T06:50:49.976Z,0.97
2019-03-13T06:53:21.086Z,1.40
2019-03-13T06:55:52.389Z,1.17
2019-03-13T06:58:39.011Z,1.00
2019-03-13T07:01:18.617Z,1.50
2019-03-13T07:04:09.115Z,1.17
2019-03-13T07:07:05.320Z,1.50
2019-03-13T07:09:55.380Z,1.13
2019-03-13T07:12:37.240Z,1.00
2019-03-13T07:15:18.619Z,1.20
2019-03-13T07:18:04.537Z,1.30
2019-03-13T07:20:47.539Z,1.20
2019-03-13T07:23:37.841Z,1.10
2019-03-13T07:26:15.121Z,1.30
2019-03-13T07:29:12.715Z,0.80
2019-03-13T07:31:55.895Z,1.10
2019-03-13T07:34:39.642Z,1.30
2019-03-13T07:37:30.032Z,1.00
2019-03-13T07:40:32.404Z,0.90
2019-03-13T07:43:14.661Z,1.23
2019-03-13T07:46:11.543Z,1.10
2019-03-13T07:49:19.703Z,1.50
2019-03-13T07:52:27.971Z,1.20
2019-03-13T07:55:22.181Z,0.90
2019-03-13T07:58:10.901Z,0.80
2019-03-13T08:00:49.422Z,0.90
2019-03-13T08:03:54.687Z,1.13
2019-03-13T08:06:40.038Z,0.80
2019-03-13T08:09:32.867Z,1.00
2019-03-13T08:12:24.420Z,1.20
2019-03-13T08:15:13.737Z,1.00
2019-03-13T08:18:07.373Z,0.70
2019-03-13T08:20:54.170Z,0.90
2019-03-13T08:23:34.054Z,1.57
2019-03-13T08:26:11.619Z,1.10
2019-03-13T08:28:58.886Z,0.90
2019-03-13T08:31:48.091Z,0.80
2019-03-13T08:34:38.326Z,0.97
2019-03-13T08:37:16.180Z,1.10
2019-03-13T08:39:56.435Z,1.00
2019-03-13T08:42:42.222Z,1.10
2019-03-13T08:45:25.921Z,0.90
2019-03-13T08:48:16.608Z,0.90
2019-03-13T08:51:06.458Z,1.03
2019-03-13T08:53:56.765Z,1.20
2019-03-13T08:56:32.097Z,1.50
2019-03-13T08:59:19.834Z,0.87
2019-03-13T09:02:04.993Z,0.80
2019-03-13T09:04:45.678Z,0.90
2019-03-13T09:07:35.454Z,0.50
2019-03-13T09:10:26.462Z,0.60
2019-03-13T09:13:07.410Z,0.57
2019-03-13T09:15:56.977Z,0.73
2019-03-13T09:18:50.238Z,0.50
2019-03-13T09:21:46.988Z,0.40
2019-03-13T09:24:23.584Z,0.80
2019-03-13T09:27:31.996Z,1.10
2019-03-13T09:30:24.991Z,0.60
2019-03-13T09:33:18.046Z,1.17
2019-03-13T09:36:08.150Z,0.70
2019-03-13T09:39:10.662Z,0.60
2019-03-13T09:41:48.304Z,0.60
2019-03-13T09:44:38.368Z,0.50
2019-03-13T09:47:15.209Z,0.50
2019-03-13T09:49:58.190Z,0.60
2019-03-13T09:53:00.397Z,0.50
2019-03-13T09:56:07.798Z,0.50
2019-03-13T09:58:55.219Z,0.60
2019-03-13T10:01:43.969Z,0.50
2019-03-13T10:04:27.513Z,0.57
2019-03-13T10:07:15.158Z,0.40
2019-03-13T10:13:19.045Z,0.70
2019-03-13T10:16:15.526Z,0.90
2019-03-13T10:19:04.693Z,0.60
2019-03-13T10:21:57.917Z,0.90
2019-03-13T10:24:51.017Z,0.50
2019-03-13T10:27:32.530Z,0.50
2019-03-13T10:30:22.701Z,0.90
2019-03-13T10:33:15.895Z,0.80
2019-03-13T10:36:06.132Z,0.67
2019-03-13T10:38:55.267Z,1.00
2019-03-13T10:41:32.116Z,0.60
2019-03-13T10:44:11.919Z,0.60
2019-03-13T10:47:01.435Z,0.60
2019-03-13T10:49:37.855Z,0.70
2019-03-13T10:52:17.043Z,0.90
2019-03-13T10:55:13.339Z,0.73
2019-03-13T10:58:12.489Z,0.60
2019-03-13T11:01:02.039Z,0.80
2019-03-13T11:03:50.896Z,0.80
2019-03-13T11:06:54.091Z,1.20
2019-03-13T11:09:27.798Z,0.43
2019-03-13T11:12:18.478Z,0.50
2019-03-13T11:15:02.282Z,0.40
2019-03-13T11:17:50.059Z,0.43
2019-03-13T11:20:39.331Z,0.40
2019-03-13T11:23:17.125Z,0.50
2019-03-13T11:26:14.184Z,0.40
2019-03-13T11:28:58.711Z,0.30
2019-03-13T11:31:38.982Z,0.43
2019-03-13T11:34:28.209Z,0.40
2019-03-13T11:37:17.411Z,0.60
2019-03-13T11:40:06.623Z,0.50
2019-03-13T11:43:12.371Z,0.60
2019-03-13T11:46:02.675Z,0.33
2019-03-13T11:49:09.628Z,0.50
2019-03-13T11:51:58.611Z,0.40
2019-03-13T11:54:54.979Z,0.70
2019-03-13T11:58:00.290Z,0.60
2019-03-13T12:00:47.745Z,0.50
2019-03-13T12:03:35.159Z,1.10
2019-03-13T12:06:28.516Z,0.40
2019-03-13T12:09:18.694Z,0.43
2019-03-13T12:12:04.142Z,0.60
2019-03-13T12:14:44.704Z,0.60
2019-03-13T12:17:24.961Z,0.40
2019-03-13T12:20:30.282Z,0.50
2019-03-13T12:23:08.751Z,0.60
2019-03-13T12:25:48.962Z,0.57
2019-03-13T12:28:31.510Z,0.40
2019-03-13T12:31:20.752Z,0.40
2019-03-13T12:34:00.522Z,0.50
2019-03-13T12:36:43.522Z,0.50
2019-03-13T12:39:32.879Z,0.40
2019-03-13T12:42:22.317Z,0.60
2019-03-13T12:45:01.590Z,0.50
2019-03-13T12:47:52.335Z,0.50
2019-03-13T12:50:28.749Z,0.63
2019-03-13T12:53:17.860Z,0.60
2019-03-13T12:56:08.139Z,0.70
2019-03-13T12:59:01.519Z,0.60
2019-03-13T13:01:47.488Z,0.60
2019-03-13T13:04:40.652Z,0.50
2019-03-13T13:07:30.827Z,0.60
2019-03-13T13:10:11.821Z,0.50
2019-03-13T13:12:53.999Z,0.97
2019-03-13T13:15:43.232Z,0.70
2019-03-13T13:18:25.969Z,0.50
2019-03-13T13:20:57.906Z,0.80
2019-03-13T13:23:29.155Z,0.40
2019-03-13T13:26:00.372Z,0.67
2019-03-13T13:28:33.455Z,0.60
2019-03-13T13:31:05.091Z,0.70
2019-03-13T13:33:37.610Z,0.40
2019-03-13T13:36:09.301Z,0.50
2019-03-13T13:38:41.092Z,0.93
2019-03-13T13:41:13.012Z,0.70
2019-03-13T13:43:44.588Z,0.73
2019-03-13T13:46:31.428Z,0.60
2019-03-13T13:49:03.408Z,0.67
2019-03-13T13:51:34.814Z,1.60
2019-03-13T13:54:06.677Z,0.70
2019-03-13T13:56:56.984Z,0.80
2019-03-13T13:59:28.165Z,0.83
2019-03-13T14:01:59.468Z,0.70
2019-03-13T14:04:30.788Z,0.90
2019-03-13T14:07:02.101Z,0.80
2019-03-13T14:09:33.348Z,0.90
2019-03-13T14:12:04.899Z,0.70
2019-03-13T14:14:36.184Z,0.60
2019-03-13T14:17:07.721Z,0.80
2019-03-13T14:19:40.165Z,0.80
2019-03-13T14:22:12.088Z,0.63
2019-03-13T14:24:43.281Z,0.83
2019-03-13T14:27:15.239Z,0.70
2019-03-13T14:29:47.351Z,0.73
2019-03-13T14:32:18.727Z,0.80
2019-03-13T14:34:50.010Z,0.90
2019-03-13T14:37:21.669Z,0.83
2019-03-13T14:39:53.558Z,1.27
2019-03-13T14:42:24.889Z,1.30
2019-03-13T14:44:56.443Z,0.80
2019-03-13T14:47:27.633Z,1.10
2019-03-13T14:49:59.774Z,0.90
2019-03-13T14:52:31.055Z,0.77
2019-03-13T14:55:02.237Z,1.00
2019-03-13T14:57:33.424Z,0.70
2019-03-13T15:00:05.800Z,0.80
2019-03-13T15:02:38.852Z,0.73
2019-03-13T15:05:10.476Z,0.70
2019-03-13T15:07:41.899Z,1.23
2019-03-13T15:10:14.190Z,1.00
2019-03-13T15:12:46.212Z,0.80
2019-03-13T15:15:17.836Z,1.03
2019-03-13T15:17:49.234Z,0.80
2019-03-13T15:20:20.744Z,0.53
2019-03-13T15:22:51.966Z,0.70
2019-03-13T15:25:24.736Z,1.83
2019-03-13T15:27:56.129Z,3.23
2019-03-13T15:30:27.553Z,3.40
2019-03-13T15:32:59.885Z,2.60
2019-03-13T15:35:31.354Z,1.20
2019-03-13T15:38:02.516Z,1.30
2019-03-13T15:40:34.140Z,0.90
2019-03-13T15:43:05.452Z,0.70
2019-03-13T15:45:37.006Z,1.03
2019-03-13T15:48:08.642Z,2.00
2019-03-13T15:50:40.333Z,1.10
2019-03-13T15:53:11.647Z,0.80
2019-03-13T15:55:42.928Z,1.00
2019-03-13T15:58:14.878Z,0.97
2019-03-13T16:00:46.540Z,0.90
2019-03-13T16:03:17.785Z,1.20
2019-03-13T16:05:49.017Z,1.10
2019-03-13T16:08:20.258Z,1.17
2019-03-13T16:10:51.814Z,1.00
2019-03-13T16:13:23.426Z,1.03
2019-03-13T16:15:54.607Z,1.30
2019-03-13T16:18:25.863Z,1.10
2019-03-13T16:20:57.270Z,1.40
2019-03-13T16:23:28.820Z,2.00
2019-03-13T16:26:00.264Z,1.47
2019-03-13T16:28:31.550Z,1.47
2019-03-13T16:31:03.006Z,1.70
2019-03-13T16:33:34.394Z,1.70
2019-03-13T16:36:05.931Z,1.03
2019-03-13T16:38:37.171Z,0.87
2019-03-13T16:41:08.686Z,1.10
2019-03-13T16:43:40.146Z,1.80
2019-03-13T16:46:11.706Z,3.60
2019-03-13T16:48:42.864Z,2.00
2019-03-13T16:51:14.424Z,0.80
2019-03-13T16:53:45.948Z,1.40
2019-03-13T16:56:17.451Z,1.00
2019-03-13T16:58:48.779Z,1.00
2019-03-13T17:01:20.849Z,1.23
2019-03-13T17:03:52.287Z,1.00
2019-03-13T17:06:23.811Z,1.37
2019-03-13T17:08:55.046Z,1.60
2019-03-13T17:11:26.304Z,1.10
2019-03-13T17:13:57.562Z,1.23
2019-03-13T17:16:28.786Z,1.20
2019-03-13T17:18:59.945Z,1.57
2019-03-13T17:21:31.237Z,1.70
2019-03-13T17:24:02.540Z,1.20
2019-03-13T17:26:33.913Z,1.10
2019-03-13T17:29:07.076Z,1.00
2019-03-13T17:31:38.335Z,1.50
2019-03-13T17:34:09.698Z,1.60
2019-03-13T17:36:41.012Z,1.50
2019-03-13T17:39:12.386Z,1.73
2019-03-13T17:41:43.915Z,1.57
2019-03-13T17:44:15.198Z,1.40
2019-03-13T17:46:46.447Z,1.90
2019-03-13T17:49:17.757Z,1.30
2019-03-13T17:51:49.033Z,1.80
2019-03-13T17:54:20.560Z,2.00
2019-03-13T17:56:51.733Z,1.70
2019-03-13T17:59:22.937Z,1.60
2019-03-13T18:01:54.525Z,1.87
2019-03-13T18:04:25.714Z,1.90
2019-03-13T18:06:57.083Z,2.00
2019-03-13T18:09:28.513Z,3.30
2019-03-13T18:11:59.789Z,2.67
2019-03-13T18:14:32.265Z,3.07
2019-03-13T18:17:03.893Z,1.90
2019-03-13T18:19:35.170Z,2.10
2019-03-13T18:22:06.530Z,3.43
2019-03-13T18:24:37.796Z,4.97
2019-03-13T18:27:09.282Z,1.83
2019-03-13T18:29:40.594Z,3.10
2019-03-13T18:32:11.984Z,3.60
2019-03-13T18:34:43.443Z,2.33
2019-03-13T18:37:15.010Z,2.40
2019-03-13T18:39:46.344Z,3.00
2019-03-13T18:42:17.719Z,2.40
2019-03-13T18:44:49.084Z,2.30
2019-03-13T18:47:20.309Z,2.33
2019-03-13T18:49:51.678Z,2.00
2019-03-13T18:52:22.888Z,1.70
2019-03-13T18:54:54.199Z,2.23
2019-03-13T18:57:25.415Z,2.40
2019-03-13T18:59:57.041Z,1.73
2019-03-13T19:02:28.319Z,1.97
2019-03-13T19:04:59.673Z,1.80
2019-03-13T19:07:31.125Z,1.67
2019-03-13T19:10:02.817Z,1.60
2019-03-13T19:12:34.703Z,2.37
2019-03-13T19:15:07.414Z,2.00
2019-03-13T19:17:38.688Z,2.57
2019-03-13T19:20:12.158Z,3.73
2019-03-13T19:22:43.529Z,2.33
2019-03-13T19:25:15.487Z,1.93
2019-03-13T19:27:47.028Z,2.03
2019-03-13T19:30:24.746Z,1.50
2019-03-13T19:32:56.152Z,1.30
2019-03-13T19:35:27.470Z,1.67
2019-03-13T19:37:59.607Z,1.73
2019-03-13T19:40:30.885Z,1.70
2019-03-13T19:43:02.261Z,1.87
2019-03-13T19:45:40.221Z,1.40
2019-03-13T19:48:11.655Z,1.40
2019-03-13T19:50:43.343Z,1.53
2019-03-13T19:53:14.704Z,1.50
2019-03-13T19:55:45.896Z,1.57
2019-03-13T19:58:17.243Z,1.20
2019-03-13T20:00:49.057Z,1.20
2019-03-13T20:03:20.413Z,1.33
2019-03-13T20:05:51.758Z,1.43
2019-03-13T20:08:22.987Z,1.13
2019-03-13T20:10:54.394Z,1.73
2019-03-13T20:13:28.095Z,2.57
2019-03-13T20:15:58.569Z,1.33
2019-03-13T20:18:30.235Z,1.10
2019-03-13T20:21:01.646Z,1.40
2019-03-13T20:23:32.964Z,1.10
2019-03-13T20:26:04.357Z,1.00
2019-03-13T20:28:35.729Z,1.10
2019-03-13T20:31:07.726Z,1.23
2019-03-13T20:33:39.326Z,1.60
2019-03-13T20:36:11.021Z,1.63
2019-03-13T20:38:42.636Z,1.03
2019-03-13T20:41:14.237Z,1.20
2019-03-13T20:43:46.128Z,1.20
2019-03-13T20:46:17.516Z,1.37
2019-03-13T20:48:50.698Z,1.40
2019-03-13T20:51:21.883Z,1.80
2019-03-13T20:53:54.172Z,1.20
2019-03-13T20:56:25.832Z,1.60
2019-03-13T20:58:58.125Z,1.30
2019-03-13T21:01:29.396Z,1.43
2019-03-13T21:04:00.685Z,1.50
2019-03-13T21:06:32.087Z,1.53
2019-03-13T21:09:05.139Z,1.30
2019-03-13T21:11:38.373Z,1.70
2019-03-13T21:14:09.714Z,1.20
2019-03-13T21:16:40.981Z,1.17
2019-03-13T21:19:12.249Z,2.00
2019-03-13T21:21:43.703Z,1.30
2019-03-13T21:24:15.021Z,1.40
2019-03-13T21:26:49.213Z,1.23
2019-03-13T21:29:19.559Z,1.47
2019-03-13T21:31:50.867Z,1.73
2019-03-13T21:34:23.714Z,1.27
2019-03-13T21:36:56.375Z,1.20
2019-03-13T21:39:27.546Z,1.30
2019-03-13T21:41:58.824Z,1.50
2019-03-13T21:44:30.300Z,1.50
2019-03-13T21:47:02.093Z,1.40
2019-03-13T21:49:33.311Z,1.83
2019-03-13T21:52:05.259Z,1.60
2019-03-13T21:54:36.612Z,2.90
2019-03-13T21:57:08.362Z,1.73
2019-03-13T21:59:39.761Z,1.70
2019-03-13T22:02:11.166Z,1.60
2019-03-13T22:04:42.664Z,1.60
2019-03-13T22:07:14.306Z,1.70
2019-03-13T22:09:45.947Z,1.57
2019-03-13T22:12:18.351Z,1.80
2019-03-13T22:14:49.575Z,1.63
2019-03-13T22:17:20.826Z,1.80
2019-03-13T22:19:52.266Z,2.07
2019-03-13T22:22:23.610Z,1.97
2019-03-13T22:24:55.252Z,1.80
2019-03-13T22:27:26.677Z,1.90
2019-03-13T22:29:58.463Z,2.10
2019-03-13T22:32:30.107Z,1.87
2019-03-13T22:35:01.376Z,1.80
2019-03-13T22:37:34.597Z,2.13
2019-03-13T22:40:06.822Z,2.00
2019-03-13T22:42:38.504Z,2.03
2019-03-13T22:45:10.980Z,1.73
2019-03-13T22:47:43.290Z,1.70
2019-03-13T22:50:17.331Z,1.60
2019-03-13T22:52:48.762Z,2.10
2019-03-13T22:55:20.246Z,2.30
2019-03-13T22:57:51.502Z,1.80
2019-03-13T23:01:05.975Z,1.73
2019-03-13T23:03:40.562Z,2.00
2019-03-13T23:06:12.047Z,1.83
2019-03-13T23:08:44.017Z,1.83
2019-03-13T23:11:15.518Z,2.20
2019-03-13T23:13:48.518Z,2.10
2019-03-13T23:16:19.833Z,2.40
2019-03-13T23:18:51.157Z,2.20
2019-03-13T23:21:22.860Z,2.67
2019-03-13T23:23:54.427Z,2.27
2019-03-13T23:26:25.969Z,2.77
2019-03-13T23:28:57.231Z,2.20
2019-03-13T23:31:28.487Z,2.20
2019-03-13T23:33:59.826Z,2.60
2019-03-13T23:36:30.987Z,2.30
2019-03-13T23:39:02.329Z,2.37
2019-03-13T23:41:35.263Z,2.30
2019-03-13T23:44:06.811Z,2.33
2019-03-13T23:46:38.077Z,2.30
2019-03-13T23:49:09.271Z,2.60
2019-03-13T23:51:40.443Z,3.00
2019-03-13T23:54:12.065Z,2.87
2019-03-13T23:56:43.707Z,2.87
2019-03-13T23:59:15.151Z,3.30
